createdAt,value
2022-12-22T00:00:41.707Z,93.76
2022-12-22T00:04:44.135Z,93.74
2022-12-22T00:08:29.176Z,93.47
2022-12-22T00:12:13.891Z,93.46
2022-12-22T00:15:58.524Z,93.69
2022-12-22T00:19:44.101Z,93.82
2022-12-22T00:23:29.887Z,93.73
2022-12-22T00:27:14.498Z,93.82
2022-12-22T00:31:00.078Z,93.84
2022-12-22T00:34:45.919Z,94.05
2022-12-22T00:38:36.029Z,93.81
2022-12-22T00:42:20.320Z,93.82
2022-12-22T00:46:04.786Z,93.98
2022-12-22T00:49:51.176Z,94.02
2022-12-22T00:53:36.166Z,94.08
2022-12-22T00:57:22.174Z,94.03
2022-12-22T01:01:06.906Z,93.90
2022-12-22T01:04:51.478Z,94.04
2022-12-22T01:08:36.182Z,93.91
2022-12-22T01:12:21.437Z,94.07
2022-12-22T01:16:06.415Z,94.00
2022-12-22T01:19:51.097Z,94.15
2022-12-22T01:23:35.999Z,94.01
2022-12-22T01:27:20.764Z,94.22
2022-12-22T01:31:06.436Z,94.58
2022-12-22T01:34:51.418Z,94.60
2022-12-22T01:38:35.930Z,94.75
2022-12-22T01:42:20.589Z,94.62
2022-12-22T01:46:05.889Z,94.81
2022-12-22T01:49:55.902Z,94.64
2022-12-22T01:53:45.867Z,94.57
2022-12-22T01:57:30.607Z,94.46
2022-12-22T02:01:15.052Z,94.49
2022-12-22T02:05:02.687Z,94.31
2022-12-22T02:08:52.592Z,94.27
2022-12-22T02:12:48.526Z,94.22
2022-12-22T02:16:41.840Z,94.11
2022-12-22T02:20:49.723Z,94.17
2022-12-22T02:24:44.577Z,94.16
2022-12-22T02:28:31.464Z,94.12
2022-12-22T02:32:16.812Z,94.18
2022-12-22T02:36:08.483Z,94.24
2022-12-22T02:40:06.144Z,94.35
2022-12-22T02:44:09.631Z,94.19
2022-12-22T02:48:02.632Z,94.02
2022-12-22T02:51:51.754Z,94.30
2022-12-22T02:55:38.042Z,94.37
2022-12-22T02:59:22.995Z,94.32
2022-12-22T03:03:07.742Z,94.26
2022-12-22T03:06:52.697Z,94.26
2022-12-22T03:10:37.577Z,94.36
2022-12-22T03:14:22.497Z,94.32
2022-12-22T03:18:07.134Z,94.33
2022-12-22T03:21:52.093Z,94.39
2022-12-22T03:25:36.736Z,94.39
2022-12-22T03:29:03.638Z,94.56
2022-12-22T03:32:30.723Z,94.38
2022-12-22T03:35:57.691Z,94.56
2022-12-22T03:39:24.725Z,94.56
2022-12-22T03:43:09.412Z,94.54
2022-12-22T03:46:36.334Z,94.62
2022-12-22T03:50:03.209Z,94.76
2022-12-22T03:53:30.174Z,94.63
2022-12-22T03:56:57.511Z,94.54
2022-12-22T04:00:24.511Z,94.41
2022-12-22T04:03:52.859Z,94.17
2022-12-22T04:07:19.693Z,94.10
2022-12-22T04:11:04.211Z,94.16
2022-12-22T04:14:34.595Z,94.13
2022-12-22T04:18:01.977Z,94.02
2022-12-22T04:21:29.431Z,94.10
2022-12-22T04:24:56.285Z,94.27
2022-12-22T04:28:23.461Z,94.48
2022-12-22T04:31:50.463Z,94.64
2022-12-22T04:35:17.407Z,94.85
2022-12-22T04:38:44.848Z,94.94
2022-12-22T04:42:11.744Z,95.25
2022-12-22T04:45:38.686Z,95.35
2022-12-22T04:49:05.565Z,95.62
2022-12-22T04:52:32.496Z,95.69
2022-12-22T04:56:02.710Z,95.57
2022-12-22T04:59:29.834Z,95.44
2022-12-22T05:02:57.069Z,95.55
2022-12-22T05:06:24.183Z,95.42
2022-12-22T05:09:51.242Z,95.65
2022-12-22T05:13:18.063Z,95.69
2022-12-22T05:16:45.008Z,95.79
2022-12-22T05:20:13.017Z,95.95
2022-12-22T05:23:39.854Z,96.07
2022-12-22T05:27:06.765Z,96.03
2022-12-22T05:30:33.652Z,96.19
2022-12-22T05:34:00.551Z,96.23
2022-12-22T05:37:27.666Z,96.39
2022-12-22T05:41:01.573Z,96.28
2022-12-22T05:44:30.726Z,96.54
2022-12-22T05:47:57.604Z,96.88
2022-12-22T05:51:25.319Z,96.76
2022-12-22T05:54:52.291Z,96.81
2022-12-22T05:58:19.259Z,96.62
2022-12-22T06:01:46.329Z,96.66
2022-12-22T06:05:15.540Z,96.58
2022-12-22T06:08:42.473Z,96.44
2022-12-22T06:12:10.353Z,96.32
2022-12-22T06:15:37.206Z,96.05
2022-12-22T06:19:04.161Z,96.04
2022-12-22T06:22:31.324Z,96.17
2022-12-22T06:25:59.984Z,96.17
2022-12-22T06:29:27.177Z,96.39
2022-12-22T06:32:54.039Z,96.40
2022-12-22T06:36:20.877Z,96.37
2022-12-22T06:39:47.877Z,96.67
2022-12-22T06:43:14.852Z,96.47
2022-12-22T06:46:41.810Z,96.65
2022-12-22T06:50:10.943Z,96.92
2022-12-22T06:53:37.802Z,96.98
2022-12-22T06:57:04.875Z,96.92
2022-12-22T07:00:32.444Z,96.92
2022-12-22T07:03:59.336Z,96.96
2022-12-22T07:07:27.026Z,96.71
2022-12-22T07:11:00.880Z,96.79
2022-12-22T07:14:27.804Z,96.71
2022-12-22T07:17:57.238Z,96.60
2022-12-22T07:21:24.204Z,96.54
2022-12-22T07:24:51.345Z,96.53
2022-12-22T07:28:20.915Z,96.47
2022-12-22T07:31:48.864Z,96.40
2022-12-22T07:35:16.098Z,96.26
2022-12-22T07:38:44.688Z,95.96
2022-12-22T07:42:31.537Z,95.54
2022-12-22T07:45:58.411Z,95.24
2022-12-22T07:49:43.224Z,95.08
2022-12-22T07:53:10.117Z,94.96
2022-12-22T07:56:37.493Z,95.24
2022-12-22T08:00:05.002Z,95.07
2022-12-22T08:03:38.910Z,95.02
2022-12-22T08:07:05.816Z,95.18
2022-12-22T08:10:32.930Z,95.03
2022-12-22T08:14:01.849Z,95.05
2022-12-22T08:17:31.101Z,95.00
2022-12-22T08:20:58.580Z,94.62
2022-12-22T08:24:26.158Z,94.84
2022-12-22T08:27:56.819Z,94.96
2022-12-22T08:31:27.119Z,95.00
2022-12-22T08:34:55.575Z,95.04
2022-12-22T08:38:22.764Z,95.04
2022-12-22T08:41:53.549Z,95.11
2022-12-22T08:45:21.033Z,94.82
2022-12-22T08:48:48.065Z,94.96
2022-12-22T08:52:18.793Z,94.84
2022-12-22T08:55:54.508Z,94.76
2022-12-22T08:59:21.434Z,94.93
2022-12-22T09:02:48.554Z,95.13
2022-12-22T09:06:15.924Z,94.82
2022-12-22T09:09:42.868Z,94.73
2022-12-22T09:13:09.790Z,94.90
2022-12-22T09:16:37.751Z,94.83
2022-12-22T09:20:05.456Z,94.85
2022-12-22T09:23:33.361Z,94.78
2022-12-22T09:27:00.372Z,94.88
2022-12-22T09:30:27.428Z,94.89
2022-12-22T09:33:54.739Z,95.24
2022-12-22T09:37:21.624Z,95.82
2022-12-22T09:40:48.873Z,95.83
2022-12-22T09:44:22.656Z,95.77
2022-12-22T09:47:53.798Z,95.70
2022-12-22T09:51:26.771Z,95.64
2022-12-22T09:54:56.323Z,95.70
2022-12-22T09:58:28.940Z,95.45
2022-12-22T10:02:23.123Z,95.48
2022-12-22T10:05:58.254Z,95.43
2022-12-22T10:09:48.847Z,95.22
2022-12-22T10:13:19.604Z,95.04
2022-12-22T10:16:46.741Z,94.58
2022-12-22T10:20:29.912Z,94.51
2022-12-22T10:23:59.353Z,94.39
2022-12-22T10:27:30.525Z,94.36
2022-12-22T10:31:14.612Z,94.07
2022-12-22T10:34:59.867Z,93.70
2022-12-22T10:38:29.731Z,93.56
2022-12-22T10:42:01.122Z,93.62
2022-12-22T10:45:29.515Z,93.67
2022-12-22T10:49:09.438Z,93.88
2022-12-22T10:52:36.583Z,93.46
2022-12-22T10:56:13.757Z,93.59
2022-12-22T10:59:51.461Z,93.66
2022-12-22T11:03:32.327Z,93.64
2022-12-22T11:07:01.343Z,93.71
2022-12-22T11:10:37.780Z,93.65
2022-12-22T11:14:14.931Z,93.71
2022-12-22T11:17:50.712Z,93.58
2022-12-22T11:21:24.305Z,93.50
2022-12-22T11:25:08.252Z,93.61
2022-12-22T11:28:53.325Z,93.56
2022-12-22T11:32:37.282Z,93.62
2022-12-22T11:36:07.203Z,93.70
2022-12-22T11:39:42.981Z,93.69
2022-12-22T11:43:26.093Z,93.86
2022-12-22T11:46:58.811Z,93.86
2022-12-22T11:50:58.600Z,94.10
2022-12-22T11:55:05.375Z,94.14
2022-12-22T11:58:47.994Z,94.38
2022-12-22T12:03:00.433Z,94.47
2022-12-22T12:06:43.083Z,94.61
2022-12-22T12:10:19.872Z,94.59
2022-12-22T12:13:55.989Z,94.79
2022-12-22T12:17:35.872Z,94.46
2022-12-22T12:21:21.275Z,94.72
2022-12-22T12:25:00.713Z,94.64
2022-12-22T12:28:41.578Z,94.58
2022-12-22T12:32:16.572Z,94.52
2022-12-22T12:35:52.693Z,94.83
2022-12-22T12:39:28.054Z,94.64
2022-12-22T12:42:57.427Z,94.80
2022-12-22T12:46:55.146Z,94.74
2022-12-22T12:50:37.769Z,94.99
2022-12-22T12:54:39.003Z,94.79
2022-12-22T12:58:07.255Z,94.96
2022-12-22T13:01:57.414Z,94.93
2022-12-22T13:05:36.613Z,95.03
2022-12-22T13:13:11.225Z,95.01
2022-12-22T13:16:40.788Z,95.27
2022-12-22T13:20:15.189Z,95.16
2022-12-22T13:24:06.129Z,95.36
2022-12-22T13:27:33.494Z,95.29
2022-12-22T13:31:05.828Z,95.52
2022-12-22T13:35:28.419Z,95.32
2022-12-22T13:38:35.705Z,95.51
2022-12-22T13:42:06.038Z,95.44
2022-12-22T13:45:36.996Z,95.33
2022-12-22T13:49:05.022Z,95.42
2022-12-22T13:52:32.759Z,95.52
2022-12-22T13:56:00.539Z,95.58
2022-12-22T13:59:32.616Z,95.55
2022-12-22T14:02:59.862Z,95.55
2022-12-22T14:06:32.636Z,95.72
2022-12-22T14:10:00.039Z,95.96
2022-12-22T14:13:33.341Z,95.99
2022-12-22T14:17:01.640Z,96.30
2022-12-22T14:20:32.283Z,96.39
2022-12-22T14:23:59.229Z,96.26
2022-12-22T14:27:36.008Z,96.44
2022-12-22T14:31:05.127Z,96.28
2022-12-22T14:34:34.193Z,96.50
2022-12-22T14:38:20.755Z,96.58
2022-12-22T14:41:53.154Z,97.03
2022-12-22T14:45:20.549Z,97.13
2022-12-22T14:48:50.205Z,97.21
2022-12-22T14:52:25.843Z,97.33
2022-12-22T14:55:53.638Z,97.23
2022-12-22T14:59:29.308Z,97.32
2022-12-22T15:02:58.307Z,97.24
2022-12-22T15:06:35.347Z,97.54
2022-12-22T15:10:15.324Z,97.60
2022-12-22T15:13:44.706Z,97.55
2022-12-22T15:17:21.005Z,97.78
2022-12-22T15:20:48.090Z,97.84
2022-12-22T15:24:17.774Z,97.97
2022-12-22T15:27:44.874Z,98.22
2022-12-22T15:31:16.172Z,98.06
2022-12-22T15:34:44.774Z,98.33
2022-12-22T15:38:16.577Z,98.45
2022-12-22T15:41:43.621Z,98.31
2022-12-22T15:45:12.567Z,98.65
2022-12-22T15:48:41.362Z,98.85
2022-12-22T15:52:13.079Z,98.90
2022-12-22T15:55:44.193Z,98.74
2022-12-22T15:59:17.115Z,98.91
2022-12-22T16:02:44.099Z,99.21
2022-12-22T16:06:16.348Z,99.23
2022-12-22T16:09:46.988Z,99.38
2022-12-22T16:13:15.431Z,99.44
2022-12-22T16:16:42.324Z,99.62
2022-12-22T16:20:12.569Z,99.76
2022-12-22T16:23:39.980Z,99.78
2022-12-22T16:27:07.890Z,99.87
2022-12-22T16:30:35.957Z,99.97
2022-12-22T16:34:02.885Z,99.98
2022-12-22T16:37:30.014Z,99.93
2022-12-22T16:40:57.141Z,99.98
2022-12-22T16:44:25.813Z,100.00
2022-12-22T16:47:54.447Z,100.00
2022-12-22T16:51:25.528Z,100.00
2022-12-22T16:54:53.128Z,100.00
2022-12-22T16:58:21.308Z,100.00
2022-12-22T17:01:52.279Z,100.00
2022-12-22T17:05:27.500Z,100.00
2022-12-22T17:08:54.640Z,100.00
2022-12-22T17:12:26.886Z,100.00
2022-12-22T17:15:53.888Z,100.00
2022-12-22T17:19:20.916Z,100.00
2022-12-22T17:22:53.787Z,100.00
2022-12-22T17:26:24.269Z,100.00
2022-12-22T17:29:51.701Z,100.00
2022-12-22T17:33:19.691Z,100.00
2022-12-22T17:36:48.658Z,100.00
2022-12-22T17:40:18.031Z,100.00
2022-12-22T17:43:45.354Z,100.00
2022-12-22T17:47:15.645Z,100.00
2022-12-22T17:50:43.854Z,100.00
2022-12-22T17:54:21.566Z,100.00
2022-12-22T17:57:49.062Z,100.00
2022-12-22T18:01:29.216Z,100.00
2022-12-22T18:04:56.265Z,100.00
2022-12-22T18:08:23.957Z,100.00
2022-12-22T18:11:51.380Z,100.00
2022-12-22T18:15:19.777Z,100.00
2022-12-22T18:18:47.073Z,100.00
2022-12-22T18:22:18.152Z,100.00
2022-12-22T18:25:45.242Z,100.00
2022-12-22T18:29:16.922Z,100.00
2022-12-22T18:32:44.091Z,100.00
2022-12-22T18:36:17.964Z,100.00
2022-12-22T18:39:45.719Z,100.00
2022-12-22T18:43:15.468Z,100.00
2022-12-22T18:46:40.821Z,100.00
2022-12-22T18:50:14.957Z,100.00
2022-12-22T18:53:42.361Z,100.00
2022-12-22T18:57:14.987Z,100.00
2022-12-22T19:00:44.317Z,100.00
2022-12-22T19:04:13.369Z,100.00
2022-12-22T19:07:40.286Z,100.00
2022-12-22T19:11:09.396Z,100.00
2022-12-22T19:14:36.756Z,100.00
2022-12-22T19:18:04.173Z,100.00
2022-12-22T19:21:31.048Z,100.00
2022-12-22T19:24:59.219Z,100.00
2022-12-22T19:28:32.457Z,100.00
2022-12-22T19:31:59.741Z,100.00
2022-12-22T19:35:27.347Z,100.00
2022-12-22T19:39:03.363Z,100.00
2022-12-22T19:42:32.146Z,100.00
2022-12-22T19:46:00.871Z,100.00
2022-12-22T19:49:29.751Z,100.00
2022-12-22T19:52:59.193Z,100.00
2022-12-22T19:56:29.774Z,100.00
2022-12-22T19:59:56.869Z,100.00
2022-12-22T20:03:26.505Z,100.00
2022-12-22T20:06:51.947Z,100.00
2022-12-22T20:10:19.674Z,100.00
2022-12-22T20:13:48.070Z,100.00
2022-12-22T20:17:15.314Z,100.00
2022-12-22T20:20:43.061Z,100.00
2022-12-22T20:24:18.430Z,100.00
2022-12-22T20:27:45.752Z,100.00
2022-12-22T20:31:15.567Z,100.00
2022-12-22T20:34:40.897Z,100.00
2022-12-22T20:38:20.471Z,100.00
2022-12-22T20:41:52.551Z,100.00
2022-12-22T20:45:22.634Z,100.00
2022-12-22T20:48:53.891Z,100.00
2022-12-22T20:52:21.574Z,100.00
2022-12-22T20:55:49.699Z,100.00
2022-12-22T20:59:19.391Z,100.00
2022-12-22T21:02:48.194Z,100.00
2022-12-22T21:06:31.040Z,100.00
2022-12-22T21:09:58.172Z,100.00
2022-12-22T21:13:25.519Z,100.00
2022-12-22T21:16:53.116Z,100.00
2022-12-22T21:20:25.811Z,100.00
2022-12-22T21:23:52.888Z,100.00
2022-12-22T21:27:22.156Z,100.00
2022-12-22T21:30:49.443Z,100.00
2022-12-22T21:34:16.498Z,100.00
2022-12-22T21:37:44.709Z,100.00
2022-12-22T21:41:11.733Z,100.00
2022-12-22T21:44:38.591Z,100.00
2022-12-22T21:48:05.884Z,100.00
2022-12-22T21:51:32.854Z,100.00
2022-12-22T21:54:59.790Z,100.00
2022-12-22T21:58:26.716Z,100.00
2022-12-22T22:01:54.197Z,100.00
2022-12-22T22:05:33.634Z,100.00
2022-12-22T22:09:00.823Z,100.00
2022-12-22T22:12:33.842Z,100.00
2022-12-22T22:16:01.592Z,100.00
2022-12-22T22:19:28.586Z,99.95
2022-12-22T22:22:57.210Z,99.95
2022-12-22T22:26:24.189Z,99.99
2022-12-22T22:29:51.248Z,99.95
2022-12-22T22:33:18.386Z,99.97
2022-12-22T22:36:45.272Z,99.98
2022-12-22T22:40:15.707Z,99.90
2022-12-22T22:43:42.566Z,99.75
2022-12-22T22:47:09.607Z,99.95
2022-12-22T22:50:36.556Z,99.73
2022-12-22T22:54:03.437Z,99.72
2022-12-22T22:57:30.261Z,99.99
2022-12-22T23:00:57.127Z,100.00
2022-12-22T23:04:24.148Z,100.00
2022-12-22T23:07:51.508Z,100.00
2022-12-22T23:11:18.772Z,100.00
2022-12-22T23:14:45.748Z,100.00
2022-12-22T23:18:12.912Z,100.00
2022-12-22T23:21:39.799Z,100.00
2022-12-22T23:25:07.989Z,100.00
2022-12-22T23:28:35.289Z,100.00
2022-12-22T23:32:02.200Z,100.00
2022-12-22T23:35:29.109Z,100.00
2022-12-22T23:38:55.958Z,100.00
2022-12-22T23:42:22.926Z,100.00
2022-12-22T23:45:49.860Z,100.00
2022-12-22T23:49:16.741Z,100.00
2022-12-22T23:52:48.998Z,100.00
2022-12-22T23:56:17.394Z,100.00
2022-12-22T23:59:44.273Z,100.00
